Thursday, April 17, 2014
09:34 UTC
  |  Log In   |  Register Free
Airport Search:

Pearson Field Airport
(KVUO)

Pearson Field Airport Diagram
No Airport Diagram Available

FAA data valid effective April 3, 2014 until May 29, 2014 (unless otherwise noted).

 
 
 
 
 
 
 
 
 
 
 
 
 
 

Current Aviation Weather for Pearson Field Airport (KVUO)

The most recent METAR observation for KVUO was updated at: 0853 UTC
METAR Summary (Translated METAR)
KVUO
170853Z AUTO 11006KT 9SM -RA BKN029 OVC049 11/09 A2998 RMK AO2 SLP153 P0003 60008 T01110094 58012
KPDX
(3.1 nm SE from KVUO)
170853Z 11006KT 7SM -RA FEW009 BKN030 OVC065 11/10 A2999 RMK AO2 SLP155 P0003 60009 T01060100 58012
TAF Summary (Translated TAF)
KPDX
(3.1 nm SE from KVUO)
170856Z 1709/1806 11008KT P6SM -RA FEW009 BKN030 OVC050 FM171200 18006KT 6SM -RADZ BR SCT015 BKN020 OVC035 FM171900 20012KT 5SM RA BKN020 OVC035 FM180100 24012KT P6SM -RA BKN025 OVC040 FM180300 29010KT P6SM -SHRA BKN025 BKN045 BKN060
KTTD
(11.5 nm SE from KVUO)
170521Z 1706/1806 19003KT P6SM -RA SCT025 OVC045 FM171000 19005KT 6SM -RA SCT015 BKN025 OVC035 FM171800 21011KT P6SM -RA BKN020 OVC035 FM180300 27010KT P6SM -SHRA BKN025 BKN045 BKN060
  Airport Weather Conditions for KVUO

 Current Weather at VUO
52° F
Light Rain
East winds at 6.9 mph
VUO NOAA Radar

Pressure: 29.98 in
Humidity: 89%
Wind: East at 6.9 MPH (6 KT)
Dew Point: 48.9°F
Visibility: 9.00 mi


Airport Weather Forecast for KVUO

Translated METAR and TAF for KVUO
Translated METAR for KVUO (0934 UTC 17 April 2014)
found at http://aviationweather.gov/adds/metars/
 
METAR text: KVUO 170905Z AUTO 13005KT 8SM -RA SCT028 OVC049 11/09 A2997 RMK AO2 P0000 T01060094
Conditions at: KVUO (VANCOUVER , WA, US) observed 0905 UTC 17 April 2014
Temperature: 10.6°C (51°F)
Dewpoint: 9.4°C (49°F) [RH = 92%]
Pressure (altimeter): 29.97 inches Hg (1015.0 mb)
Winds: from the SE (130 degrees) at 6 MPH (5 knots; 2.6 m/s)
Visibility: 8 miles (13 km)
Ceiling: 4900 feet AGL
Clouds: scattered clouds at 2800 feet AGL
overcast cloud deck at 4900 feet AGL
Weather: -RA  (light rain)
Translated TAF for KVUO

There is no translated TAF available for this airport

Find All Airport Services Find A Hotel Find A Rental Car Find A Golf Course Find A Restaurant $100 Hamburger



FBO's on the Field
FBO Company Facility Photos Services Transportation Aviation Fuel Prices: Prices include tax
Catering Weather Repair Courtesy Rental Type 100LL JetA JetA+ MOGAS 8087
 
Aero Maintenance Inc

This FBO has not yet been rated
FS:AirBP
Last Updated: Apr-15
Login to update fuel prices
SS:
Contact Aero Maintenance IncMore FBO Information
 
Add another FBO Facility Photos Catering Weather Repair Courtesy Rental Type 100LL JetA JetA+ MOGAS 8087
Services Transportation Aviation Fuel Prices: Prices include tax


GlobalAir.com Airport Resource Center model-print
model-print
model-print
model-print